Terminal Aerodrome Forecast
Issued by NWS North Platte, NE

Home | Current Version | Previous Version | Text Only | Print | Product List | Glossary Off
Versions: 1 2 3 4 5 6 7 8 9 10 11 12 13 14 15 16

000
FTUS43 KLBF 212300
TAFVTN
TAF
KVTN 212324Z 2200/2224 28012KT P6SM FEW150
     FM220700 34005KT P6SM BKN150
     FM221500 05009KT P6SM FEW150=

USA.gov is the U.S. government's official web portal to all federal, state and local government web resources and services.